Time;durP1;ratioP1;P1;durP2;ratioP2;P2;SDS_P1;SDS_P2;PMS_P1;PMS_P2;Temp;Humidity;BMP_temperature;BMP_pressure;BME280_temperature;BME280_humidity;BME280_pressure;Samples;Min_cycle;Max_cycle;Signal;HPM_P1;HPM_P2
2023/11/17 00:00:12;;;;;;;13.20;8.60;;;;;;;5.67;100.00;100505.64;105942;1251;73615;-75
2023/11/17 00:02:40;;;;;;;10.60;7.10;;;;;;;5.65;100.00;100507.42;105908;1257;63756;-75
2023/11/17 00:05:07;;;;;;;11.00;7.60;;;;;;;5.65;100.00;100508.83;105983;1251;72613;-76
2023/11/17 00:07:34;;;;;;;10.40;7.80;;;;;;;5.65;100.00;100513.16;107045;1255;60433;-75
2023/11/17 00:10:02;;;;;;;9.50;7.00;;;;;;;5.63;100.00;100515.14;106374;1256;60449;-75
2023/11/17 00:12:29;;;;;;;11.80;8.20;;;;;;;5.64;100.00;100517.55;106151;1251;73942;-77
2023/11/17 00:14:57;;;;;;;10.60;7.90;;;;;;;5.64;100.00;100520.11;105837;1257;63916;-76
2023/11/17 00:17:24;;;;;;;10.80;7.10;;;;;;;5.66;100.00;100521.27;105806;1257;72776;-77
2023/11/17 00:19:51;;;;;;;9.50;7.20;;;;;;;5.67;100.00;100522.45;106021;1256;60537;-78
2023/11/17 00:22:20;;;;;;;8.70;7.30;;;;;;;5.68;100.00;100525.00;105873;1256;60429;-75
2023/11/17 00:24:47;;;;;;;11.50;8.40;;;;;;;5.68;100.00;100520.81;105879;1252;72684;-75
2023/11/17 00:27:14;;;;;;;14.80;7.50;;;;;;;5.67;100.00;100517.58;105878;1255;62861;-76
2023/11/17 00:29:41;;;;;;;9.40;7.10;;;;;;;5.65;100.00;100520.44;105981;1250;71474;-76
2023/11/17 00:32:11;;;;;;;10.50;8.40;;;;;;;5.61;100.00;100526.32;105945;1257;61180;-78
2023/11/17 00:34:38;;;;;;;12.30;8.50;;;;;;;5.60;100.00;100528.10;105999;1256;60440;-77
2023/11/17 00:37:07;;;;;;;13.00;8.00;;;;;;;5.60;100.00;100529.83;105935;1256;73748;-78
2023/11/17 00:39:35;;;;;;;13.20;8.50;;;;;;;5.61;100.00;100536.55;106038;1258;63875;-77
2023/11/17 00:42:02;;;;;;;10.40;7.90;;;;;;;5.63;100.00;100534.58;105859;1256;71036;-77
2023/11/17 00:44:30;;;;;;;10.60;7.90;;;;;;;5.63;100.00;100534.21;105835;1257;61219;-78
2023/11/17 00:46:57;;;;;;;15.30;8.70;;;;;;;5.63;100.00;100534.05;105872;1256;60460;-76
2023/11/17 00:49:25;;;;;;;12.30;7.80;;;;;;;5.63;100.00;100535.98;105971;1256;73763;-76
2023/11/17 00:51:53;;;;;;;12.40;9.30;;;;;;;5.61;100.00;100538.10;105847;1257;62425;-79
2023/11/17 00:54:25;;;;;;;15.30;8.90;;;;;;;5.61;100.00;100537.94;105942;1256;70714;-75
2023/11/17 00:56:56;;;;;;;15.10;9.50;;;;;;;5.61;100.00;100538.98;105840;1254;61305;-77
2023/11/17 00:59:24;;;;;;;12.00;8.90;;;;;;;5.61;100.00;100545.75;105924;1256;60530;-79
2023/11/17 01:01:51;;;;;;;12.50;9.00;;;;;;;5.59;100.00;100545.80;105899;1256;73857;-78
2023/11/17 01:04:19;;;;;;;12.80;9.20;;;;;;;5.57;100.00;100544.86;105893;1256;63693;-76
2023/11/17 01:06:53;;;;;;;12.40;9.50;;;;;;;5.56;100.00;100543.70;105840;1251;72613;-77
2023/11/17 01:09:24;;;;;;;13.30;9.90;;;;;;;5.54;100.00;100546.04;105982;1255;61201;-77
2023/11/17 01:11:51;;;;;;;10.50;7.80;;;;;;;5.51;100.00;100541.98;105852;1256;61155;-75
2023/11/17 01:14:19;;;;;;;10.50;8.10;;;;;;;5.50;100.00;100540.48;105980;1251;72375;-77
2023/11/17 01:16:46;;;;;;;11.10;7.90;;;;;;;5.50;100.00;100543.60;106109;1253;62377;-76
2023/11/17 01:19:14;;;;;;;13.90;8.80;;;;;;;5.48;100.00;100544.70;105844;1252;71279;-78
2023/11/17 01:21:40;;;;;;;11.40;7.40;;;;;;;5.46;100.00;100546.17;105949;1257;61209;-77
2023/11/17 01:24:08;;;;;;;11.50;8.00;;;;;;;5.45;100.00;100550.36;105945;1260;60777;-78
2023/11/17 01:26:34;;;;;;;12.20;8.50;;;;;;;5.43;100.00;100549.26;105935;1257;73934;-76
2023/11/17 01:29:04;;;;;;;12.00;8.00;;;;;;;5.40;100.00;100552.98;106051;1256;63868;-78
2023/11/17 01:31:32;;;;;;;11.20;7.60;;;;;;;5.40;100.00;100550.55;105988;1251;72577;-79
2023/11/17 01:33:59;;;;;;;8.70;6.60;;;;;;;5.41;100.00;100547.94;105930;1253;60584;-78
2023/11/17 01:36:28;;;;;;;7.80;6.50;;;;;;;5.42;100.00;100549.29;105936;1257;60348;-76
2023/11/17 01:38:55;;;;;;;7.90;5.90;;;;;;;5.41;100.00;100550.36;105958;1254;73841;-78
2023/11/17 01:41:23;;;;;;;14.50;7.80;;;;;;;5.38;100.00;100550.30;105966;1257;63746;-76
2023/11/17 01:43:50;;;;;;;15.90;9.10;;;;;;;5.35;100.00;100547.81;105983;1257;71417;-77
2023/11/17 01:46:19;;;;;;;14.30;8.90;;;;;;;5.32;100.00;100552.94;105914;1264;61158;-77
2023/11/17 01:48:46;;;;;;;13.30;8.90;;;;;;;5.29;100.00;100551.52;105975;1257;60626;-77
2023/11/17 01:51:13;;;;;;;15.70;9.50;;;;;;;5.27;100.00;100557.33;105971;1257;73540;-78
2023/11/17 01:53:41;;;;;;;11.60;8.20;;;;;;;5.27;100.00;100559.59;105737;1258;64495;-77
2023/11/17 01:56:08;;;;;;;8.30;6.10;;;;;;;5.30;100.00;100557.91;105921;1257;72481;-75
2023/11/17 01:58:35;;;;;;;9.20;5.80;;;;;;;5.31;100.00;100556.83;105992;1256;61348;-78
2023/11/17 02:01:03;;;;;;;8.30;6.70;;;;;;;5.29;100.00;100552.55;105890;1256;61070;-78
2023/11/17 02:03:31;;;;;;;7.40;6.10;;;;;;;5.31;100.00;100551.64;106020;1255;73830;-77
2023/11/17 02:06:08;;;;;;;6.50;5.60;;;;;;;5.33;100.00;100544.42;105731;1257;63758;-77
2023/11/17 02:08:42;;;;;;;6.00;5.40;;;;;;;5.33;100.00;100544.62;105938;1256;72528;-77
2023/11/17 02:11:37;;;;;;;13.60;7.60;;;;;;;5.34;100.00;100545.07;105903;1255;60425;-75
2023/11/17 02:14:21;;;;;;;9.50;6.10;;;;;;;5.39;100.00;100545.91;106041;1257;60523;-74
2023/11/17 02:16:50;;;;;;;7.80;6.40;;;;;;;5.43;100.00;100548.55;105921;1257;72353;-76
2023/11/17 02:19:35;;;;;;;7.00;6.20;;;;;;;5.44;100.00;100551.13;105993;1254;63959;-77
2023/11/17 02:22:06;;;;;;;9.70;7.60;;;;;;;5.40;100.00;100554.23;105786;1259;72479;-76
2023/11/17 02:25:25;;;;;;;10.90;7.70;;;;;;;5.37;100.00;100550.52;105931;1256;61236;-75
2023/11/17 02:28:10;;;;;;;15.50;9.20;;;;;;;5.33;100.00;100551.52;105349;1262;60361;-76
2023/11/17 02:30:39;;;;;;;18.80;10.20;;;;;;;5.33;100.00;100555.36;105328;1263;72933;-75
2023/11/17 02:33:10;;;;;;;16.00;10.10;;;;;;;5.32;100.00;100557.81;105268;1259;62782;-75
2023/11/17 02:35:38;;;;;;;15.30;9.40;;;;;;;5.31;100.00;100564.09;105320;1257;71711;-76
2023/11/17 02:38:05;;;;;;;13.80;10.70;;;;;;;5.30;100.00;100565.16;105297;1263;60463;-74
2023/11/17 02:40:32;;;;;;;12.00;9.20;;;;;;;5.30;100.00;100565.70;105322;1258;60723;-75
2023/11/17 02:43:00;;;;;;;17.00;10.10;;;;;;;5.30;100.00;100566.91;105237;1263;72500;-75
2023/11/17 02:45:27;;;;;;;14.10;10.50;;;;;;;5.29;100.00;100565.38;105352;1263;62776;-76
2023/11/17 02:47:56;;;;;;;16.70;10.60;;;;;;;5.29;100.00;100560.36;105386;1262;72699;-76
2023/11/17 02:50:31;;;;;;;18.20;9.40;;;;;;;5.28;100.00;100553.83;105349;1263;61346;-75
2023/11/17 02:53:18;;;;;;;15.30;9.90;;;;;;;5.26;100.00;100550.27;105405;1262;60624;-76
2023/11/17 02:55:45;;;;;;;13.80;9.70;;;;;;;5.24;100.00;100555.35;105553;1263;73832;-76
2023/11/17 02:58:12;;;;;;;15.10;10.60;;;;;;;5.26;100.00;100556.16;105298;1263;63974;-75
2023/11/17 03:00:39;;;;;;;13.80;10.40;;;;;;;5.28;100.00;100557.64;105540;1261;72931;-74
2023/11/17 03:03:06;;;;;;;16.00;9.80;;;;;;;5.29;100.00;100560.53;105954;1251;60491;-74
2023/11/17 03:05:36;;;;;;;14.70;10.10;;;;;;;5.28;100.00;100557.63;106235;1256;60546;-75
2023/11/17 03:08:04;;;;;;;18.80;10.60;;;;;;;5.27;100.00;100560.96;106159;1251;73557;-74
2023/11/17 03:10:31;;;;;;;24.80;15.50;;;;;;;5.27;100.00;100559.39;106035;1257;65443;-75
2023/11/17 03:12:58;;;;;;;18.40;11.20;;;;;;;5.31;100.00;100562.54;105937;1256;72667;-77
2023/11/17 03:15:28;;;;;;;13.20;9.50;;;;;;;5.33;100.00;100560.03;105899;1254;61204;-77
2023/11/17 03:17:55;;;;;;;12.70;8.50;;;;;;;5.33;100.00;100559.16;106054;1252;60539;-76
2023/11/17 03:20:22;;;;;;;10.10;7.00;;;;;;;5.32;100.00;100562.34;105954;1255;73586;-76
2023/11/17 03:22:49;;;;;;;9.80;6.00;;;;;;;5.31;100.00;100561.98;105945;1256;63874;-76
2023/11/17 03:25:17;;;;;;;7.20;5.00;;;;;;;5.27;100.00;100563.21;105893;1257;72723;-75
2023/11/17 03:27:50;;;;;;;5.30;4.70;;;;;;;5.24;100.00;100560.04;106669;1251;60475;-76
2023/11/17 03:30:19;;;;;;;7.00;5.00;;;;;;;5.22;100.00;100558.73;106823;1258;60530;-76
2023/11/17 03:32:47;;;;;;;5.80;3.80;;;;;;;5.21;100.00;100554.64;106116;1251;73894;-76
2023/11/17 03:35:14;;;;;;;4.20;3.80;;;;;;;5.20;100.00;100558.64;105903;1257;63952;-76
2023/11/17 03:37:42;;;;;;;4.50;4.10;;;;;;;5.19;100.00;100554.52;105993;1256;70121;-77
2023/11/17 03:40:11;;;;;;;3.70;3.20;;;;;;;5.20;100.00;100552.38;105945;1252;60918;-77
2023/11/17 03:42:40;;;;;;;3.80;3.50;;;;;;;5.18;100.00;100554.02;106127;1257;60796;-76
2023/11/17 03:45:08;;;;;;;5.00;3.40;;;;;;;5.14;100.00;100557.13;106001;1254;73921;-78
2023/11/17 03:47:35;;;;;;;3.90;3.10;;;;;;;5.13;100.00;100566.70;106556;1254;64085;-76
2023/11/17 03:50:03;;;;;;;3.10;2.90;;;;;;;5.11;100.00;100562.95;106004;1264;72403;-76
2023/11/17 03:52:35;;;;;;;4.60;3.60;;;;;;;5.10;100.00;100565.77;105912;1254;61046;-78
2023/11/17 03:55:03;;;;;;;3.20;2.90;;;;;;;5.09;100.00;100564.93;105988;1251;60433;-78
2023/11/17 03:57:31;;;;;;;2.90;2.50;;;;;;;5.09;100.00;100564.59;105935;1256;73865;-76
2023/11/17 03:59:59;;;;;;;3.30;3.00;;;;;;;5.09;100.00;100564.10;105759;1257;63853;-75
2023/11/17 04:02:28;;;;;;;4.00;2.80;;;;;;;5.07;100.00;100569.02;106020;1252;73095;-78
2023/11/17 04:04:55;;;;;;;3.70;3.40;;;;;;;5.04;100.00;100573.84;106065;1254;60772;-75
2023/11/17 04:07:23;;;;;;;2.90;2.70;;;;;;;5.02;100.00;100576.33;105977;1257;60431;-77
2023/11/17 04:09:50;;;;;;;3.00;2.70;;;;;;;5.01;100.00;100576.88;105877;1250;73435;-75
2023/11/17 04:12:17;;;;;;;3.40;3.00;;;;;;;5.01;100.00;100580.85;105659;1256;62357;-76
2023/11/17 04:14:45;;;;;;;4.70;3.00;;;;;;;5.03;100.00;100583.74;105920;1256;71325;-77
2023/11/17 04:17:13;;;;;;;3.60;3.20;;;;;;;5.04;100.00;100585.26;105708;1255;60447;-76
2023/11/17 04:19:42;;;;;;;3.60;3.30;;;;;;;5.03;100.00;100585.96;105856;1251;60424;-77
2023/11/17 04:22:09;;;;;;;3.20;2.90;;;;;;;5.00;100.00;100586.59;105878;1257;73915;-75
2023/11/17 04:24:37;;;;;;;3.20;2.90;;;;;;;4.98;100.00;100592.55;105917;1255;63003;-75
2023/11/17 04:27:07;;;;;;;3.60;3.30;;;;;;;4.99;100.00;100593.55;105877;1252;71730;-76
2023/11/17 04:29:35;;;;;;;3.40;3.10;;;;;;;5.03;100.00;100598.98;105849;1254;60408;-76
2023/11/17 04:32:03;;;;;;;2.80;2.50;;;;;;;5.05;100.00;100595.23;105794;1251;60673;-75
2023/11/17 04:34:31;;;;;;;2.90;2.70;;;;;;;5.07;100.00;100603.48;105922;1251;73733;-75
2023/11/17 04:36:58;;;;;;;3.90;3.50;;;;;;;5.09;100.00;100597.70;105931;1254;63854;-77
2023/11/17 04:39:26;;;;;;;3.70;3.40;;;;;;;5.10;100.00;100603.91;105823;1252;72719;-76
2023/11/17 04:41:54;;;;;;;6.20;5.60;;;;;;;5.10;100.00;100604.43;106024;1257;60864;-76
2023/11/17 04:44:21;;;;;;;8.20;6.00;;;;;;;5.09;100.00;100610.16;105917;1255;60347;-76
2023/11/17 04:46:48;;;;;;;6.70;5.50;;;;;;;5.09;100.00;100613.45;105981;1252;72620;-76
2023/11/17 04:49:19;;;;;;;6.30;5.70;;;;;;;5.11;100.00;100615.83;105700;1257;63782;-75
2023/11/17 04:51:49;;;;;;;7.10;6.40;;;;;;;5.12;100.00;100617.69;105786;1254;267068;-77
2023/11/17 04:56:13;;;;;;;8.00;7.30;;;;;;;5.13;100.00;100617.30;102600;1292;603865;-77
2023/11/17 04:58:40;;;;;;;8.50;7.50;;;;;;;5.11;100.00;100623.80;104954;1268;61077;-75
2023/11/17 05:01:06;;;;;;;7.40;6.80;;;;;;;5.12;100.00;100626.34;105002;1264;60225;-79
2023/11/17 05:03:35;;;;;;;7.70;6.90;;;;;;;5.13;100.00;100627.35;105644;1259;70089;-75
2023/11/17 05:06:06;;;;;;;6.80;6.20;;;;;;;5.14;100.00;100626.25;105460;1259;63700;-74
2023/11/17 05:08:37;;;;;;;7.50;6.80;;;;;;;5.16;100.00;100631.06;105496;1259;201682;-75
2023/11/17 05:11:05;;;;;;;6.70;6.10;;;;;;;5.15;100.00;100630.91;105727;1253;60876;-76
2023/11/17 05:13:32;;;;;;;7.30;6.10;;;;;;;5.14;100.00;100631.30;105701;1257;59294;-76
2023/11/17 05:16:03;;;;;;;6.40;5.90;;;;;;;5.15;100.00;100637.52;105670;1253;74051;-75
2023/11/17 05:18:31;;;;;;;6.80;6.20;;;;;;;5.17;100.00;100638.81;106226;1257;63769;-76
2023/11/17 05:20:59;;;;;;;6.80;6.20;;;;;;;5.20;100.00;100642.86;105954;1257;72421;-77
2023/11/17 05:23:29;;;;;;;6.30;5.70;;;;;;;5.21;100.00;100640.23;105727;1253;62193;-76
2023/11/17 05:25:56;;;;;;;9.50;6.90;;;;;;;5.21;100.00;100644.56;105724;1253;59918;-77
2023/11/17 05:28:24;;;;;;;7.00;4.60;;;;;;;5.21;100.00;100645.80;105813;1253;71286;-76
2023/11/17 05:30:52;;;;;;;5.00;4.60;;;;;;;5.19;100.00;100650.35;105981;1257;63680;-77
2023/11/17 05:33:21;;;;;;;6.20;5.70;;;;;;;5.17;100.00;100650.06;105739;1253;71261;-77
2023/11/17 05:35:48;;;;;;;5.20;4.50;;;;;;;5.15;100.00;100652.56;106434;1252;61056;-76
2023/11/17 05:38:15;;;;;;;5.00;3.80;;;;;;;5.15;100.00;100649.29;106051;1253;60238;-76
2023/11/17 05:40:42;;;;;;;6.60;4.10;;;;;;;5.14;100.00;100648.63;105637;1253;71487;-76
2023/11/17 05:43:10;;;;;;;4.90;3.70;;;;;;;5.14;100.00;100650.17;105809;1253;63762;-76
2023/11/17 05:45:37;;;;;;;6.30;3.30;;;;;;;5.16;100.00;100660.33;105555;1259;71444;-77
2023/11/17 05:48:05;;;;;;;3.60;3.30;;;;;;;5.18;100.00;100658.55;105667;1257;61182;-77
2023/11/17 05:50:33;;;;;;;5.50;3.10;;;;;;;5.18;100.00;100659.24;105775;1257;60087;-79
2023/11/17 05:53:01;;;;;;;5.20;3.70;;;;;;;5.17;100.00;100658.59;105969;1255;74855;-77
2023/11/17 05:55:28;;;;;;;3.80;3.40;;;;;;;5.18;100.00;100654.38;105787;1253;63783;-77
2023/11/17 05:57:57;;;;;;;4.90;3.40;;;;;;;5.21;100.00;100657.38;105810;1257;72725;-75
2023/11/17 06:00:27;;;;;;;5.40;3.00;;;;;;;5.23;100.00;100653.86;105909;1257;60057;-76
2023/11/17 06:02:54;;;;;;;3.50;2.90;;;;;;;5.27;100.00;100654.58;105676;1259;62014;-76
2023/11/17 06:05:22;;;;;;;5.10;3.60;;;;;;;5.31;100.00;100657.54;105691;1254;72962;-76
2023/11/17 06:07:49;;;;;;;4.20;3.60;;;;;;;5.33;100.00;100663.86;105673;1257;63789;-75
2023/11/17 06:10:16;;;;;;;4.70;3.80;;;;;;;5.35;100.00;100667.09;106028;1250;72572;-74
2023/11/17 06:12:44;;;;;;;4.40;3.60;;;;;;;5.36;100.00;100668.80;105928;1254;61277;-75
2023/11/17 06:15:11;;;;;;;4.60;3.90;;;;;;;5.36;100.00;100671.91;105944;1250;59615;-77
2023/11/17 06:17:38;;;;;;;3.30;2.80;;;;;;;5.39;100.00;100671.42;106054;1251;73003;-75
2023/11/17 06:20:08;;;;;;;6.20;3.70;;;;;;;5.43;100.00;100673.36;105929;1254;63667;-77
2023/11/17 06:22:35;;;;;;;5.40;3.60;;;;;;;5.44;100.00;100678.19;105978;1250;72583;-77
2023/11/17 06:25:03;;;;;;;4.10;3.70;;;;;;;5.43;100.00;100678.40;105996;1254;60881;-78
2023/11/17 06:27:31;;;;;;;6.00;4.10;;;;;;;5.46;100.00;100684.20;105957;1250;60245;-75
2023/11/17 06:29:58;;;;;;;4.80;3.60;;;;;;;5.47;100.00;100686.41;105978;1250;73059;-78
2023/11/17 06:32:26;;;;;;;5.40;3.90;;;;;;;5.46;100.00;100686.11;105876;1254;63782;-78
2023/11/17 06:34:53;;;;;;;4.10;3.40;;;;;;;5.43;100.00;100697.14;106038;1250;72684;-76
2023/11/17 06:37:20;;;;;;;5.60;4.00;;;;;;;5.39;100.00;100699.88;105856;1250;59796;-76
2023/11/17 06:39:47;;;;;;;4.40;3.50;;;;;;;5.35;100.00;100705.05;105989;1250;60010;-77
2023/11/17 06:42:14;;;;;;;5.80;4.10;;;;;;;5.32;100.00;100708.98;105946;1254;72931;-78
2023/11/17 06:44:41;;;;;;;4.40;3.90;;;;;;;5.32;100.00;100714.52;105984;1253;63635;-76
2023/11/17 06:47:08;;;;;;;4.80;4.00;;;;;;;5.34;100.00;100717.25;105906;1250;73353;-75
2023/11/17 06:49:37;;;;;;;4.10;3.60;;;;;;;5.36;100.00;100715.73;105837;1253;59698;-77
2023/11/17 06:52:07;;;;;;;10.10;4.10;;;;;;;5.38;100.00;100722.60;105856;1255;59541;-75
2023/11/17 06:54:35;;;;;;;4.00;3.70;;;;;;;5.38;100.00;100724.16;106049;1250;71607;-77
2023/11/17 06:57:02;;;;;;;5.90;4.70;;;;;;;5.39;100.00;100729.85;106505;1251;63878;-77
2023/11/17 06:59:29;;;;;;;3.40;3.10;;;;;;;5.42;100.00;100731.32;105911;1250;72651;-77
2023/11/17 07:01:56;;;;;;;4.10;3.70;;;;;;;5.42;100.00;100734.45;105860;1250;59626;-76
2023/11/17 07:04:24;;;;;;;4.00;3.30;;;;;;;5.44;100.00;100733.68;106082;1252;59656;-78
2023/11/17 07:06:53;;;;;;;6.10;3.40;;;;;;;5.47;100.00;100737.04;105966;1251;73069;-77
2023/11/17 07:09:23;;;;;;;4.50;2.50;;;;;;;5.49;100.00;100735.92;105969;1250;62668;-76
2023/11/17 07:11:52;;;;;;;3.30;2.70;;;;;;;5.50;100.00;100736.05;105924;1254;72686;-77
2023/11/17 07:14:21;;;;;;;3.90;3.30;;;;;;;5.52;100.00;100732.84;105995;1250;59721;-79
2023/11/17 07:16:52;;;;;;;3.90;3.60;;;;;;;5.58;100.00;100736.96;106046;1250;60207;-78
2023/11/17 07:19:20;;;;;;;3.10;2.80;;;;;;;5.61;100.00;100735.46;106021;1251;73165;-77
2023/11/17 07:21:50;;;;;;;3.70;2.90;;;;;;;5.65;100.00;100736.52;105970;1254;63696;-77
2023/11/17 07:24:18;;;;;;;3.80;3.40;;;;;;;5.69;100.00;100741.77;106123;1250;72666;-76
2023/11/17 07:26:46;;;;;;;3.20;2.80;;;;;;;5.74;100.00;100749.53;106067;1250;60600;-78
2023/11/17 07:29:14;;;;;;;2.90;2.70;;;;;;;5.76;100.00;100752.23;105926;1257;59574;-76
2023/11/17 07:31:48;;;;;;;4.50;2.70;;;;;;;5.76;100.00;100750.86;106008;1254;71965;-77
2023/11/17 07:34:15;;;;;;;2.90;2.70;;;;;;;5.79;100.00;100753.02;106101;1254;63746;-78
2023/11/17 07:36:42;;;;;;;3.50;3.20;;;;;;;5.80;100.00;100752.08;106030;1254;72718;-79
2023/11/17 07:39:12;;;;;;;2.80;2.60;;;;;;;5.80;100.00;100751.41;106112;1253;61130;-80
2023/11/17 07:41:40;;;;;;;3.20;2.80;;;;;;;5.80;100.00;100753.84;105991;1250;60321;-78
2023/11/17 07:44:11;;;;;;;2.60;2.40;;;;;;;5.77;100.00;100754.63;105981;1256;72883;-79
2023/11/17 07:46:38;;;;;;;2.80;2.60;;;;;;;5.76;100.00;100761.63;105948;1254;62873;-78
2023/11/17 07:49:06;;;;;;;2.80;2.60;;;;;;;5.75;100.00;100760.96;105926;1251;72803;-79
2023/11/17 07:51:35;;;;;;;2.20;2.10;;;;;;;5.73;100.00;100764.51;105992;1254;61286;-78
2023/11/17 07:54:04;;;;;;;2.50;2.30;;;;;;;5.70;100.00;100766.35;105992;1251;60349;-79
2023/11/17 07:56:30;;;;;;;2.20;2.00;;;;;;;5.68;100.00;100772.33;105963;1253;73072;-79
2023/11/17 07:58:59;;;;;;;3.00;2.70;;;;;;;5.68;100.00;100780.66;106014;1254;63957;-78
2023/11/17 08:01:26;;;;;;;3.00;2.50;;;;;;;5.69;100.00;100782.87;105973;1254;73066;-78
2023/11/17 08:03:54;;;;;;;1.90;1.80;;;;;;;5.68;100.00;100787.77;106011;1253;61091;-76
2023/11/17 08:06:22;;;;;;;3.70;3.10;;;;;;;5.68;100.00;100795.40;106115;1256;59604;-77
2023/11/17 08:08:49;;;;;;;4.70;3.30;;;;;;;5.67;100.00;100800.13;105730;1250;73144;-78
2023/11/17 08:11:16;;;;;;;3.40;3.00;;;;;;;5.68;100.00;100801.48;105935;1254;62938;-78
2023/11/17 08:13:43;;;;;;;2.60;2.40;;;;;;;5.69;100.00;100801.95;106049;1250;71234;-77
2023/11/17 08:16:11;;;;;;;3.40;2.20;;;;;;;5.70;100.00;100808.51;105903;1254;61214;-77
2023/11/17 08:18:38;;;;;;;2.90;2.70;;;;;;;5.71;100.00;100810.70;105770;1250;61268;-77
2023/11/17 08:21:06;;;;;;;4.20;2.90;;;;;;;5.70;100.00;100815.96;105978;1253;71917;-80
2023/11/17 08:23:34;;;;;;;4.30;2.90;;;;;;;5.68;100.00;100819.84;105947;1254;63879;-78
2023/11/17 08:26:01;;;;;;;3.10;2.90;;;;;;;5.69;100.00;100822.77;105834;1256;71622;-78
2023/11/17 08:28:29;;;;;;;3.00;2.70;;;;;;;5.70;100.00;100827.93;105872;1254;61312;-77
2023/11/17 08:30:59;;;;;;;2.70;2.40;;;;;;;5.73;100.00;100826.95;105810;1250;59987;-78
2023/11/17 08:33:27;;;;;;;4.50;2.80;;;;;;;5.79;100.00;100824.98;105953;1255;73324;-77
2023/11/17 08:35:57;;;;;;;3.20;2.70;;;;;;;5.85;100.00;100824.94;105971;1250;62590;-76
2023/11/17 08:38:25;;;;;;;4.40;2.70;;;;;;;5.90;100.00;100825.65;105910;1254;72804;-78
2023/11/17 08:40:55;;;;;;;2.50;2.30;;;;;;;5.94;100.00;100827.08;105939;1256;61323;-78
2023/11/17 08:43:22;;;;;;;3.60;3.00;;;;;;;5.97;100.00;100822.79;106000;1250;60316;-76
2023/11/17 08:45:52;;;;;;;2.70;2.50;;;;;;;6.00;100.00;100820.45;105959;1254;72968;-76
2023/11/17 08:48:19;;;;;;;3.80;2.60;;;;;;;6.03;100.00;100822.41;105980;1254;63858;-76
2023/11/17 08:50:46;;;;;;;2.50;2.20;;;;;;;6.06;100.00;100828.03;105971;1254;72507;-76
2023/11/17 08:53:13;;;;;;;3.40;3.10;;;;;;;6.08;100.00;100826.20;106133;1254;62427;-77
2023/11/17 08:55:41;;;;;;;4.80;3.00;;;;;;;6.09;100.00;100831.05;106620;1256;59634;-77
2023/11/17 08:58:16;;;;;;;3.10;2.70;;;;;;;6.06;100.00;100829.40;105998;1254;72353;-78
2023/11/17 09:00:43;;;;;;;3.00;2.80;;;;;;;6.05;100.00;100826.14;105886;1254;64210;-76
2023/11/17 09:03:10;;;;;;;3.50;2.50;;;;;;;6.05;100.00;100826.31;105917;1250;72774;-75
2023/11/17 09:05:37;;;;;;;3.70;2.70;;;;;;;6.04;100.00;100822.73;105920;1251;61186;-77
2023/11/17 09:08:07;;;;;;;3.00;2.60;;;;;;;6.02;100.00;100818.64;105957;1254;60437;-77
2023/11/17 09:10:34;;;;;;;3.80;2.70;;;;;;;5.99;100.00;100821.16;105985;1254;73890;-77
2023/11/17 09:13:04;;;;;;;2.90;2.70;;;;;;;5.96;100.00;100820.05;105916;1254;63568;-76
2023/11/17 09:15:33;;;;;;;4.30;2.60;;;;;;;5.94;100.00;100818.39;106237;1250;72741;-77
2023/11/17 09:18:00;;;;;;;4.20;2.80;;;;;;;5.95;100.00;100820.11;106055;1256;61238;-75
2023/11/17 09:20:28;;;;;;;2.50;2.30;;;;;;;5.95;100.00;100818.52;105986;1250;60442;-75
2023/11/17 09:22:56;;;;;;;2.70;2.50;;;;;;;5.97;100.00;100821.08;105998;1250;72909;-76
2023/11/17 09:25:23;;;;;;;2.80;2.50;;;;;;;5.98;100.00;100825.20;106080;1254;62442;-77
2023/11/17 09:27:59;;;;;;;3.70;2.60;;;;;;;5.97;100.00;100828.34;106039;1250;72553;-76
2023/11/17 09:30:30;;;;;;;3.20;2.50;;;;;;;5.97;100.00;100830.23;106085;1254;60385;-76
2023/11/17 09:32:59;;;;;;;2.90;2.70;;;;;;;5.98;100.00;100830.38;105984;1251;61013;-77
2023/11/17 09:35:26;;;;;;;4.50;2.90;;;;;;;6.01;100.00;100829.95;105878;1256;73985;-76
2023/11/17 09:37:58;;;;;;;3.10;2.80;;;;;;;6.03;100.00;100830.76;105958;1254;63784;-75
2023/11/17 09:40:28;;;;;;;3.90;3.50;;;;;;;6.06;100.00;100830.64;106018;1252;70731;-76
2023/11/17 09:43:05;;;;;;;5.30;4.40;;;;;;;6.07;100.00;100827.46;105907;1254;61218;-75
2023/11/17 09:45:33;;;;;;;5.50;3.90;;;;;;;6.09;100.00;100825.33;105983;1254;60432;-76
2023/11/17 09:48:04;;;;;;;3.20;2.90;;;;;;;6.10;100.00;100825.41;105945;1256;72816;-76
2023/11/17 09:50:31;;;;;;;3.80;3.30;;;;;;;6.13;100.00;100821.67;105954;1255;63775;-75
2023/11/17 09:53:00;;;;;;;3.90;3.40;;;;;;;6.17;100.00;100817.53;105857;1255;72706;-76
2023/11/17 09:55:28;;;;;;;2.90;2.70;;;;;;;6.19;100.00;100819.70;106010;1256;61103;-78
2023/11/17 09:57:58;;;;;;;2.90;2.60;;;;;;;6.22;100.00;100815.94;105906;1255;60363;-77
2023/11/17 10:00:27;;;;;;;3.20;2.60;;;;;;;6.27;100.00;100819.77;106028;1254;73696;-77
2023/11/17 10:02:55;;;;;;;3.50;3.20;;;;;;;6.29;100.00;100818.96;105827;1256;64065;-77
2023/11/17 10:05:23;;;;;;;3.00;2.80;;;;;;;6.31;100.00;100815.93;106039;1255;72684;-78
2023/11/17 10:08:03;;;;;;;2.80;2.60;;;;;;;6.33;100.00;100817.97;106031;1254;61209;-77
2023/11/17 10:10:39;;;;;;;2.30;2.10;;;;;;;6.31;100.00;100817.85;105998;1254;60454;-76
2023/11/17 10:13:11;;;;;;;2.90;2.50;;;;;;;6.33;100.00;100816.05;106012;1251;72770;-77
2023/11/17 10:15:39;;;;;;;2.60;2.40;;;;;;;6.36;100.00;100815.74;106008;1254;63578;-77
2023/11/17 10:18:07;;;;;;;2.40;2.20;;;;;;;6.40;100.00;100809.34;105646;1258;73993;-78
2023/11/17 10:20:36;;;;;;;2.60;2.40;;;;;;;6.41;100.00;100811.56;105957;1250;60953;-78
2023/11/17 10:23:07;;;;;;;1.70;1.60;;;;;;;6.40;100.00;100818.38;106041;1254;60361;-76
2023/11/17 10:25:34;;;;;;;1.90;1.80;;;;;;;6.38;100.00;100814.64;105942;1250;73663;-77
2023/11/17 10:28:05;;;;;;;1.40;1.30;;;;;;;6.35;100.00;100813.89;105966;1250;63819;-78
2023/11/17 10:30:46;;;;;;;0.90;0.90;;;;;;;6.33;100.00;100817.60;105991;1254;73897;-80
2023/11/17 10:33:44;;;;;;;1.30;1.20;;;;;;;6.29;100.00;100820.90;106042;1255;62640;-78
2023/11/17 10:36:15;;;;;;;1.50;1.40;;;;;;;6.25;100.00;100823.31;105444;1257;60726;-77
2023/11/17 10:38:45;;;;;;;1.20;1.10;;;;;;;6.24;100.00;100823.52;105371;1257;74775;-80
2023/11/17 10:41:33;;;;;;;3.40;1.40;;;;;;;6.22;100.00;100820.64;105516;1262;64957;-79
2023/11/17 10:44:01;;;;;;;1.60;1.50;;;;;;;6.21;100.00;100819.79;105509;1256;72721;-79
2023/11/17 10:46:35;;;;;;;1.20;1.20;;;;;;;6.23;100.00;100816.61;105549;1260;61113;-80
2023/11/17 10:49:06;;;;;;;1.70;1.60;;;;;;;6.23;100.00;100816.41;105385;1256;60460;-76
2023/11/17 10:51:45;;;;;;;2.30;1.60;;;;;;;6.22;100.00;100817.85;105375;1259;73912;-79
2023/11/17 10:54:12;;;;;;;1.10;1.10;;;;;;;6.20;100.00;100823.66;105384;1261;63871;-80
2023/11/17 10:56:41;;;;;;;1.30;1.20;;;;;;;6.20;100.00;100824.36;105458;1257;72606;-78
2023/11/17 10:59:09;;;;;;;1.70;1.60;;;;;;;6.20;100.00;100826.45;105494;1261;60473;-78
2023/11/17 11:01:37;;;;;;;1.20;1.10;;;;;;;6.19;100.00;100830.64;105534;1256;60640;-77
2023/11/17 11:04:14;;;;;;;2.10;1.90;;;;;;;6.20;100.00;100833.73;105983;1256;73670;-78
2023/11/17 11:06:42;;;;;;;1.80;1.50;;;;;;;6.21;100.00;100842.54;105447;1256;63491;-78
2023/11/17 11:09:16;;;;;;;1.90;1.80;;;;;;;6.25;100.00;100837.73;105490;1257;72853;-79
2023/11/17 11:11:50;;;;;;;1.60;1.50;;;;;;;6.25;100.00;100845.18;105466;1262;61174;-78
2023/11/17 11:14:17;;;;;;;1.20;1.20;;;;;;;6.22;100.00;100846.33;105824;1251;60503;-79
2023/11/17 11:16:47;;;;;;;16.30;2.60;;;;;;;6.18;100.00;100848.02;105803;1256;73732;-77
2023/11/17 11:19:17;;;;;;;1.70;1.60;;;;;;;6.16;100.00;100847.75;105800;1256;63915;-78
2023/11/17 11:22:00;;;;;;;1.40;1.30;;;;;;;6.13;100.00;100846.66;106037;1250;72800;-79
2023/11/17 11:24:34;;;;;;;;;;;;;;;6.12;100.00;100847.57;106138;1255;60463;-78